Time;durP1;ratioP1;P1;durP2;ratioP2;P2;SDS_P1;SDS_P2;PMS_P1;PMS_P2;Temp;Humidity;BMP_temperature;BMP_pressure;BME280_temperature;BME280_humidity;BME280_pressure;Samples;Min_cycle;Max_cycle;Signal;HPM_P1;HPM_P2
2023/03/08 00:00:17;;;;;;;3.42;1.80;;;0.90;99.90;;;;;;5137605;27;20371;-70
2023/03/08 00:02:43;;;;;;;3.20;1.95;;;0.90;99.90;;;;;;5155733;27;20050;-68
2023/03/08 00:05:09;;;;;;;2.58;1.77;;;0.90;99.90;;;;;;5155325;27;20043;-68
2023/03/08 00:07:36;;;;;;;3.33;1.50;;;1.20;99.90;;;;;;5155308;27;20038;-68
2023/03/08 00:10:02;;;;;;;3.45;1.40;;;1.70;99.90;;;;;;5154480;27;20070;-69
2023/03/08 00:12:28;;;;;;;3.53;1.75;;;0.90;99.90;;;;;;5154253;27;20054;-69
2023/03/08 00:14:54;;;;;;;5.07;1.98;;;0.90;99.90;;;;;;5155323;27;20050;-69
2023/03/08 00:17:19;;;;;;;1.80;1.38;;;1.10;99.90;;;;;;5155043;27;20039;-68
2023/03/08 00:19:45;;;;;;;2.22;1.70;;;0.90;99.90;;;;;;5154933;27;20172;-68
2023/03/08 00:22:11;;;;;;;2.78;1.98;;;1.00;99.90;;;;;;5154104;27;20387;-70
2023/03/08 00:24:37;;;;;;;3.50;1.50;;;0.90;99.90;;;;;;5154369;27;20050;-68
2023/03/08 00:27:03;;;;;;;1.95;1.73;;;1.60;99.90;;;;;;5154164;27;20042;-67
2023/03/08 00:29:30;;;;;;;2.85;1.60;;;0.90;99.90;;;;;;5136095;27;20448;-67
2023/03/08 00:31:55;;;;;;;2.70;1.88;;;0.80;99.90;;;;;;5154661;27;20082;-68
2023/03/08 00:34:21;;;;;;;2.90;1.73;;;0.80;99.90;;;;;;5154574;27;20050;-70
2023/03/08 00:36:47;;;;;;;2.38;2.15;;;0.80;99.90;;;;;;5153946;27;20042;-69
2023/03/08 00:39:15;;;;;;;2.47;2.28;;;0.80;99.90;;;;;;5136213;27;20047;-67
2023/03/08 00:41:41;;;;;;;3.38;2.05;;;0.80;99.90;;;;;;5154459;27;20050;-66
2023/03/08 00:44:06;;;;;;;2.20;1.98;;;0.70;99.90;;;;;;5118620;27;20356;-70
2023/03/08 00:46:32;;;;;;;3.45;1.63;;;0.90;99.90;;;;;;5153858;27;20134;-69
2023/03/08 00:48:58;;;;;;;2.10;1.90;;;0.80;99.90;;;;;;5154101;27;20051;-68
2023/03/08 00:51:25;;;;;;;2.35;1.50;;;1.10;99.90;;;;;;5154278;27;20131;-69
2023/03/08 00:53:50;;;;;;;3.83;1.75;;;1.60;99.90;;;;;;5137926;27;20051;-68
2023/03/08 00:56:16;;;;;;;3.28;1.77;;;0.80;99.90;;;;;;5158130;27;20030;-67
2023/03/08 00:58:42;;;;;;;2.67;2.05;;;0.70;99.90;;;;;;5139392;27;20479;-67
2023/03/08 01:01:13;;;;;;;3.97;2.45;;;0.70;99.90;;;;;;5158138;27;20092;-71
2023/03/08 01:03:38;;;;;;;3.40;2.17;;;1.00;99.90;;;;;;5157666;27;20133;-68
2023/03/08 01:06:07;;;;;;;3.00;2.10;;;0.70;99.90;;;;;;5157716;27;20066;-68
2023/03/08 01:08:33;;;;;;;3.70;1.70;;;0.70;99.90;;;;;;5139552;27;20049;-69
2023/03/08 01:11:00;;;;;;;3.63;1.77;;;0.70;99.90;;;;;;5157625;27;20042;-68
2023/03/08 01:13:28;;;;;;;1.92;1.67;;;0.60;99.90;;;;;;5157539;27;20061;-68
2023/03/08 01:15:54;;;;;;;1.63;1.52;;;0.60;99.90;;;;;;5157797;27;20050;-68
2023/03/08 01:18:20;;;;;;;2.40;1.88;;;0.60;99.90;;;;;;5157558;27;20046;-68
2023/03/08 01:20:57;;;;;;;3.72;2.50;;;0.60;99.90;;;;;;5157382;27;20474;-70
2023/03/08 01:23:23;;;;;;;4.30;1.83;;;0.60;99.90;;;;;;5157307;27;20030;-68
2023/03/08 01:26:04;;;;;;;3.08;1.90;;;1.60;99.90;;;;;;5157789;27;20046;-70
2023/03/08 01:28:30;;;;;;;2.08;1.60;;;0.60;99.90;;;;;;5157802;27;20104;-68
2023/03/08 01:31:04;;;;;;;3.30;1.65;;;0.70;99.90;;;;;;5157167;27;20046;-67
2023/03/08 01:33:30;;;;;;;1.85;1.70;;;0.60;99.90;;;;;;5157376;27;20551;-67
2023/03/08 01:35:56;;;;;;;2.22;2.00;;;0.60;99.90;;;;;;5157062;27;20046;-67
2023/03/08 01:38:23;;;;;;;1.63;1.50;;;0.60;99.90;;;;;;5157219;27;20038;-68
2023/03/08 01:40:53;;;;;;;2.35;1.73;;;0.60;99.90;;;;;;5157450;27;20043;-67
2023/03/08 01:43:27;;;;;;;3.08;1.52;;;0.60;99.90;;;;;;5157647;27;20038;-67
2023/03/08 01:46:27;;;;;;;1.80;1.70;;;0.60;99.90;;;;;;5156926;27;20054;-68
2023/03/08 01:48:57;;;;;;;2.00;1.60;;;0.60;99.90;;;;;;5156702;27;20135;-68
2023/03/08 01:51:36;;;;;;;2.70;1.58;;;0.60;99.90;;;;;;5138285;27;20137;-68
2023/03/08 01:54:10;;;;;;;4.18;1.92;;;1.00;99.90;;;;;;5156798;27;20049;-68
2023/03/08 01:56:37;;;;;;;4.05;1.77;;;0.50;99.90;;;;;;5157226;27;20058;-67
2023/03/08 01:59:03;;;;;;;3.53;1.70;;;1.50;99.90;;;;;;5156783;27;20117;-68
2023/03/08 02:01:30;;;;;;;4.78;1.85;;;0.50;99.90;;;;;;5156476;27;20504;-69
2023/03/08 02:03:55;;;;;;;3.72;1.98;;;0.50;99.90;;;;;;5156727;27;20109;-68
2023/03/08 02:06:21;;;;;;;5.57;1.90;;;2.00;99.90;;;;;;5156615;27;20496;-69
2023/03/08 02:08:47;;;;;;;1.92;1.50;;;1.90;99.90;;;;;;5156501;27;20070;-68
2023/03/08 02:11:16;;;;;;;2.15;1.83;;;0.60;99.90;;;;;;5138781;27;20525;-68
2023/03/08 02:13:42;;;;;;;4.97;1.80;;;1.30;99.90;;;;;;5156864;27;20043;-68
2023/03/08 02:16:11;;;;;;;2.85;1.85;;;0.50;99.90;;;;;;5156419;27;20535;-68
2023/03/08 02:18:58;;;;;;;1.48;1.30;;;1.20;99.90;;;;;;5137832;27;20322;-68
2023/03/08 02:21:25;;;;;;;2.45;1.40;;;0.40;99.90;;;;;;5156834;27;20057;-68
2023/03/08 02:23:51;;;;;;;2.50;1.85;;;0.40;99.90;;;;;;5156139;27;20034;-69
2023/03/08 02:26:17;;;;;;;3.65;1.90;;;0.60;99.90;;;;;;5155945;27;20442;-67
2023/03/08 02:28:43;;;;;;;2.78;1.98;;;0.40;99.90;;;;;;5156139;27;20077;-68
2023/03/08 02:31:10;;;;;;;3.70;1.48;;;0.40;99.90;;;;;;5156162;27;20060;-68
2023/03/08 02:33:35;;;;;;;2.45;1.70;;;0.90;99.90;;;;;;5155711;27;20464;-68
2023/03/08 02:36:03;;;;;;;4.38;1.85;;;0.40;99.90;;;;;;5156065;27;20046;-68
2023/03/08 02:38:29;;;;;;;3.58;1.77;;;0.40;99.90;;;;;;5156305;27;20114;-68
2023/03/08 02:40:55;;;;;;;4.45;2.00;;;0.30;99.90;;;;;;5155967;27;20473;-69
2023/03/08 02:43:21;;;;;;;4.55;2.10;;;0.30;99.90;;;;;;5137790;27;20046;-67
2023/03/08 02:45:47;;;;;;;2.20;2.00;;;0.40;99.90;;;;;;5155701;27;20085;-68
2023/03/08 02:48:13;;;;;;;3.33;2.20;;;0.60;99.90;;;;;;5155739;27;20078;-68
2023/03/08 02:50:39;;;;;;;1.85;1.75;;;0.40;99.90;;;;;;5156373;27;20527;-68
2023/03/08 02:53:05;;;;;;;2.05;1.67;;;0.40;99.90;;;;;;5155980;27;20074;-68
2023/03/08 02:55:34;;;;;;;1.85;1.52;;;2.00;99.90;;;;;;5136967;27;20046;-68
2023/03/08 02:58:02;;;;;;;2.65;1.80;;;0.30;99.90;;;;;;5155422;27;20473;-68
2023/03/08 03:00:27;;;;;;;3.47;2.08;;;0.30;99.90;;;;;;5155369;27;20134;-68
2023/03/08 03:02:53;;;;;;;3.28;2.28;;;0.30;99.90;;;;;;5155151;27;20046;-69
2023/03/08 03:05:19;;;;;;;2.15;1.90;;;0.30;99.90;;;;;;5155572;27;20038;-68
2023/03/08 03:07:44;;;;;;;2.20;1.95;;;0.40;99.90;;;;;;5155567;27;20459;-68
2023/03/08 03:10:11;;;;;;;1.90;1.77;;;0.40;99.90;;;;;;5155136;27;20050;-68
2023/03/08 03:12:37;;;;;;;4.45;2.17;;;0.40;99.90;;;;;;5136850;27;20068;-69
2023/03/08 03:15:05;;;;;;;3.42;1.90;;;0.40;99.90;;;;;;5136976;27;20058;-69
2023/03/08 03:17:31;;;;;;;2.42;1.88;;;0.40;99.90;;;;;;5154382;27;20039;-69
2023/03/08 03:19:57;;;;;;;4.82;2.20;;;0.40;99.90;;;;;;5137167;27;20047;-69
2023/03/08 03:22:23;;;;;;;2.20;1.40;;;0.30;99.90;;;;;;5154867;27;20042;-68
2023/03/08 03:24:50;;;;;;;2.63;2.30;;;0.40;99.90;;;;;;5155280;27;20359;-68
2023/03/08 03:27:16;;;;;;;4.63;2.03;;;0.40;99.90;;;;;;5137037;27;20051;-69
2023/03/08 03:29:42;;;;;;;2.83;2.28;;;0.40;99.90;;;;;;5136958;27;20337;-69
2023/03/08 03:32:08;;;;;;;2.20;2.00;;;0.40;99.90;;;;;;5136264;27;20056;-69
2023/03/08 03:34:33;;;;;;;4.50;1.98;;;0.50;99.90;;;;;;5136062;27;20043;-68
2023/03/08 03:36:59;;;;;;;4.75;2.25;;;0.50;99.90;;;;;;5154516;27;20049;-69
2023/03/08 03:39:25;;;;;;;2.60;2.03;;;0.40;99.90;;;;;;5155074;27;20072;-68
2023/03/08 03:41:50;;;;;;;2.25;2.05;;;0.30;99.90;;;;;;5136544;27;20448;-69
2023/03/08 03:44:16;;;;;;;1.90;1.80;;;0.30;99.90;;;;;;5136393;27;20427;-69
2023/03/08 03:46:42;;;;;;;2.33;1.63;;;0.80;99.90;;;;;;5154390;27;20046;-68
2023/03/08 03:49:07;;;;;;;1.88;1.73;;;0.30;99.90;;;;;;5135559;27;20145;-68
2023/03/08 03:51:33;;;;;;;3.53;2.10;;;0.60;99.90;;;;;;5154437;27;20043;-69
2023/03/08 03:53:59;;;;;;;4.32;2.63;;;0.30;99.90;;;;;;5154702;27;20496;-68
2023/03/08 03:56:26;;;;;;;3.35;2.15;;;0.60;99.90;;;;;;5156821;27;20043;-69
2023/03/08 03:58:53;;;;;;;4.68;2.13;;;0.30;99.90;;;;;;5155801;27;20043;-68
2023/03/08 04:01:23;;;;;;;3.17;2.00;;;0.20;99.90;;;;;;5155514;27;20107;-68
2023/03/08 04:03:50;;;;;;;2.58;1.80;;;1.30;99.90;;;;;;5155275;27;20131;-67
2023/03/08 04:06:22;;;;;;;2.08;1.83;;;0.30;99.90;;;;;;5154931;27;20039;-68
2023/03/08 04:08:48;;;;;;;3.72;2.35;;;0.60;99.90;;;;;;5154553;27;20115;-68
2023/03/08 04:11:17;;;;;;;2.30;1.90;;;0.80;99.90;;;;;;5135547;27;20411;-68
2023/03/08 04:13:43;;;;;;;4.78;2.13;;;1.30;99.90;;;;;;5154072;27;20091;-67
2023/03/08 04:16:16;;;;;;;2.83;1.92;;;0.20;99.90;;;;;;5135922;27;20046;-69
2023/03/08 04:18:42;;;;;;;2.00;1.88;;;0.20;99.90;;;;;;5154383;27;20054;-68
2023/03/08 04:21:09;;;;;;;4.65;2.10;;;0.20;99.90;;;;;;5153939;27;20558;-68
2023/03/08 04:23:35;;;;;;;4.35;2.10;;;0.50;99.90;;;;;;5154053;27;20086;-68
2023/03/08 04:26:01;;;;;;;3.70;2.20;;;0.20;99.90;;;;;;5154045;27;20043;-68
2023/03/08 04:28:27;;;;;;;3.10;1.80;;;0.80;99.90;;;;;;5155936;27;20083;-68
2023/03/08 04:30:53;;;;;;;2.75;1.92;;;0.10;99.90;;;;;;5158140;27;20134;-68
2023/03/08 04:33:20;;;;;;;3.83;2.25;;;0.10;99.90;;;;;;5158492;27;20111;-68
2023/03/08 04:35:45;;;;;;;3.28;2.25;;;0.00;99.90;;;;;;5139859;27;20111;-67
2023/03/08 04:38:11;;;;;;;2.03;1.92;;;1.10;99.90;;;;;;5158069;27;20047;-69
2023/03/08 04:41:00;;;;;;;2.45;2.25;;;0.10;99.90;;;;;;5123102;27;20467;-68
2023/03/08 04:43:23;;;;;;;1.85;1.75;;;0.10;99.90;;;;;;5157961;27;20061;-68
2023/03/08 04:45:49;;;;;;;3.92;2.47;;;0.60;99.90;;;;;;5158609;27;20051;-68
2023/03/08 04:48:15;;;;;;;3.47;2.50;;;0.20;99.90;;;;;;5158296;27;20090;-68
2023/03/08 04:50:41;;;;;;;4.47;3.22;;;0.50;99.90;;;;;;5139259;27;20470;-68
2023/03/08 04:53:07;;;;;;;3.05;2.58;;;0.10;99.90;;;;;;5158201;27;20050;-68
2023/03/08 04:55:35;;;;;;;3.97;2.75;;;0.10;99.90;;;;;;5157946;27;20465;-68
2023/03/08 04:58:01;;;;;;;4.30;3.40;;;0.10;99.90;;;;;;5158049;27;20062;-69
2023/03/08 05:00:27;;;;;;;2.40;2.17;;;0.10;99.90;;;;;;5139164;27;20457;-68
2023/03/08 05:02:52;;;;;;;2.38;2.17;;;0.10;99.90;;;;;;5157557;27;20107;-68
2023/03/08 05:05:18;;;;;;;6.43;2.75;;;0.20;99.90;;;;;;5139879;27;20054;-69
2023/03/08 05:07:44;;;;;;;4.35;2.70;;;0.30;99.90;;;;;;5139490;27;20046;-68
2023/03/08 05:10:10;;;;;;;2.78;2.58;;;-0.10;99.90;;;;;;5158082;27;20054;-68
2023/03/08 05:12:35;;;;;;;3.30;3.00;;;-0.20;99.90;;;;;;5157900;27;20043;-68
2023/03/08 05:15:01;;;;;;;2.50;2.30;;;-0.20;99.90;;;;;;5157857;27;20049;-68
2023/03/08 05:17:27;;;;;;;3.33;2.97;;;-0.20;99.90;;;;;;5139763;27;20084;-67
2023/03/08 05:19:53;;;;;;;6.10;3.90;;;-0.20;99.90;;;;;;5157417;27;20050;-69
2023/03/08 05:22:18;;;;;;;3.92;3.60;;;-0.10;99.90;;;;;;5157188;27;20115;-70
2023/03/08 05:24:45;;;;;;;4.20;3.90;;;1.50;99.90;;;;;;5157144;27;20122;-68
2023/03/08 05:27:11;;;;;;;5.57;4.55;;;0.80;99.90;;;;;;5157719;27;20213;-68
2023/03/08 05:29:37;;;;;;;5.18;4.60;;;1.60;99.90;;;;;;5157078;27;20078;-68
2023/03/08 05:32:03;;;;;;;4.45;4.05;;;0.70;99.90;;;;;;5157702;27;20066;-68
2023/03/08 05:34:29;;;;;;;5.55;4.78;;;0.00;99.90;;;;;;5157403;27;20501;-68
2023/03/08 05:36:55;;;;;;;6.88;5.53;;;0.10;99.90;;;;;;5138698;27;20520;-68
2023/03/08 05:39:21;;;;;;;6.72;6.13;;;-0.10;99.90;;;;;;5156815;27;20118;-68
2023/03/08 05:41:47;;;;;;;9.27;6.25;;;-0.20;99.90;;;;;;5156919;27;20082;-68
2023/03/08 05:44:13;;;;;;;8.57;6.47;;;-0.20;99.90;;;;;;5156882;27;20043;-68
2023/03/08 05:46:39;;;;;;;8.30;7.28;;;0.70;99.90;;;;;;5157315;27;20130;-68
2023/03/08 05:49:05;;;;;;;8.57;7.78;;;-0.20;99.90;;;;;;5156919;27;20086;-68
2023/03/08 05:51:32;;;;;;;6.93;6.22;;;-0.20;99.90;;;;;;5156799;27;20042;-67
2023/03/08 05:53:57;;;;;;;9.07;8.27;;;-0.20;99.90;;;;;;5138178;27;20129;-68
2023/03/08 05:56:23;;;;;;;9.10;8.20;;;-0.30;99.90;;;;;;5156620;27;20086;-68
2023/03/08 05:58:50;;;;;;;8.13;7.32;;;0.90;99.90;;;;;;5156481;27;20043;-67
2023/03/08 06:01:24;;;;;;;9.75;8.70;;;-0.30;99.90;;;;;;5138104;27;20061;-68
2023/03/08 06:03:53;;;;;;;9.98;9.07;;;0.80;99.90;;;;;;5156731;27;20043;-68
2023/03/08 06:06:20;;;;;;;9.10;8.20;;;-0.20;99.90;;;;;;5120944;27;20062;-68
2023/03/08 06:08:46;;;;;;;8.75;7.95;;;0.10;99.90;;;;;;5156423;27;20035;-68
2023/03/08 06:11:13;;;;;;;9.90;7.88;;;0.50;99.90;;;;;;5138383;27;20156;-68
2023/03/08 06:13:39;;;;;;;8.88;8.07;;;-0.20;99.90;;;;;;5156345;27;20038;-67
2023/03/08 06:16:05;;;;;;;9.23;7.65;;;1.10;99.90;;;;;;5156515;27;20065;-67
2023/03/08 06:18:32;;;;;;;9.48;8.65;;;-0.10;99.90;;;;;;5138001;27;20046;-68
2023/03/08 06:21:11;;;;;;;9.80;8.48;;;-0.10;99.90;;;;;;5157312;27;20170;-68
2023/03/08 06:23:37;;;;;;;9.63;8.63;;;-0.10;99.90;;;;;;5156464;27;20048;-67
2023/03/08 06:26:03;;;;;;;9.80;8.90;;;0.60;99.90;;;;;;5156093;27;20551;-68
2023/03/08 06:28:30;;;;;;;10.43;9.40;;;-0.10;99.90;;;;;;5156323;27;20043;-69
2023/03/08 06:30:56;;;;;;;10.45;9.05;;;1.10;99.90;;;;;;5155966;27;20046;-68
2023/03/08 06:33:24;;;;;;;10.48;9.38;;;0.30;99.90;;;;;;5138355;27;20066;-68
2023/03/08 06:35:58;;;;;;;9.10;8.18;;;0.00;99.90;;;;;;5156042;27;20483;-68
2023/03/08 06:38:25;;;;;;;10.65;9.50;;;0.00;99.90;;;;;;5155949;27;20113;-67
2023/03/08 06:40:50;;;;;;;9.77;8.88;;;0.00;99.90;;;;;;5155704;27;20053;-68
2023/03/08 06:43:16;;;;;;;11.38;9.20;;;0.90;99.90;;;;;;5156035;27;20042;-68
2023/03/08 06:45:42;;;;;;;8.75;7.95;;;1.10;99.90;;;;;;5137598;27;20119;-68
2023/03/08 06:48:08;;;;;;;10.55;8.77;;;0.10;99.90;;;;;;5137598;27;20455;-69
2023/03/08 06:50:34;;;;;;;10.15;9.02;;;0.50;99.90;;;;;;5154879;27;20481;-68
2023/03/08 06:53:00;;;;;;;9.38;8.52;;;0.20;99.90;;;;;;5156015;27;20042;-68
2023/03/08 06:55:26;;;;;;;9.25;8.27;;;0.30;99.90;;;;;;5155436;27;20490;-68
2023/03/08 06:57:54;;;;;;;9.63;8.25;;;0.50;99.90;;;;;;5155420;27;20115;-68
2023/03/08 07:00:21;;;;;;;8.63;7.93;;;0.50;99.90;;;;;;5155574;27;20081;-68
2023/03/08 07:02:47;;;;;;;10.18;9.20;;;0.40;99.90;;;;;;5155391;27;20049;-68
2023/03/08 07:05:17;;;;;;;8.55;7.75;;;0.60;99.90;;;;;;5155244;27;20054;-68
2023/03/08 07:07:43;;;;;;;9.23;8.43;;;0.60;99.90;;;;;;5155594;27;20043;-68
2023/03/08 07:10:10;;;;;;;10.63;8.90;;;0.50;99.90;;;;;;5155263;27;20042;-69
2023/03/08 07:12:39;;;;;;;10.30;7.47;;;0.60;99.90;;;;;;5136947;27;20123;-68
2023/03/08 07:15:09;;;;;;;10.18;8.55;;;0.60;99.90;;;;;;5155701;27;20050;-68
2023/03/08 07:17:35;;;;;;;9.10;8.25;;;0.60;99.90;;;;;;5155010;27;20071;-68
2023/03/08 07:20:04;;;;;;;10.07;9.05;;;0.70;99.90;;;;;;5154813;27;20506;-68
2023/03/08 07:22:30;;;;;;;9.15;8.35;;;1.30;99.90;;;;;;5154545;27;20535;-69
2023/03/08 07:24:56;;;;;;;8.73;7.90;;;0.70;99.90;;;;;;5154615;27;20372;-69
2023/03/08 07:27:27;;;;;;;7.30;6.70;;;0.90;99.90;;;;;;5154841;27;20042;-69
2023/03/08 07:29:53;;;;;;;7.85;7.05;;;0.90;99.90;;;;;;5137949;27;20035;-69
2023/03/08 07:32:19;;;;;;;8.40;7.68;;;0.90;99.90;;;;;;5154641;27;20113;-69
2023/03/08 07:34:44;;;;;;;8.30;7.25;;;1.60;99.90;;;;;;5154677;27;20049;-69
2023/03/08 07:37:14;;;;;;;8.52;7.20;;;1.10;99.90;;;;;;5154748;27;20085;-69
2023/03/08 07:39:41;;;;;;;7.90;6.80;;;2.00;99.90;;;;;;5136439;27;20085;-70
2023/03/08 07:42:09;;;;;;;8.00;7.20;;;1.20;99.90;;;;;;5154306;27;20509;-69
2023/03/08 07:44:36;;;;;;;10.20;8.43;;;1.30;99.90;;;;;;5155158;27;20142;-69
2023/03/08 07:47:03;;;;;;;9.65;8.75;;;1.40;99.90;;;;;;5154681;27;20125;-69
2023/03/08 07:49:28;;;;;;;11.40;8.23;;;1.50;99.90;;;;;;5154488;27;20111;-69
2023/03/08 07:51:54;;;;;;;8.40;7.50;;;1.50;99.90;;;;;;5136608;27;20046;-68
2023/03/08 07:54:20;;;;;;;9.30;8.27;;;1.50;99.90;;;;;;5154794;27;20492;-69
2023/03/08 07:56:46;;;;;;;8.60;7.75;;;1.60;99.90;;;;;;5154343;27;20049;-69
2023/03/08 07:59:12;;;;;;;9.45;8.43;;;1.70;99.90;;;;;;5154283;27;20151;-68
2023/03/08 08:01:38;;;;;;;8.25;7.55;;;1.90;99.90;;;;;;5154274;27;20047;-69
2023/03/08 08:04:03;;;;;;;8.65;7.30;;;1.80;99.90;;;;;;5135747;27;20191;-70
2023/03/08 08:06:29;;;;;;;8.55;7.75;;;2.00;99.90;;;;;;5153998;27;20046;-69
2023/03/08 08:08:56;;;;;;;11.02;7.90;;;1.80;99.90;;;;;;5154647;27;20074;-68
2023/03/08 08:11:22;;;;;;;8.57;7.88;;;1.80;99.90;;;;;;5154203;27;20042;-68
2023/03/08 08:13:48;;;;;;;8.60;7.80;;;1.90;99.90;;;;;;5136007;27;20054;-70
2023/03/08 08:16:16;;;;;;;8.63;7.22;;;2.20;99.90;;;;;;5154514;27;20050;-70
2023/03/08 08:18:42;;;;;;;8.55;7.50;;;1.90;99.90;;;;;;5154078;27;20050;-69
2023/03/08 08:21:10;;;;;;;10.88;9.15;;;2.00;99.90;;;;;;5154218;27;20043;-71
2023/03/08 08:23:38;;;;;;;8.80;7.97;;;2.20;99.90;;;;;;5153785;27;20442;-68
2023/03/08 08:26:15;;;;;;;8.20;7.40;;;2.30;99.90;;;;;;5119287;27;20054;-67
2023/03/08 08:28:42;;;;;;;9.40;8.60;;;2.40;99.90;;;;;;5154182;27;20488;-68
2023/03/08 08:31:14;;;;;;;8.27;7.47;;;2.50;99.90;;;;;;5135766;27;20042;-68
2023/03/08 08:33:40;;;;;;;8.35;7.55;;;2.50;99.90;;;;;;5154073;27;20062;-68
2023/03/08 08:36:10;;;;;;;8.90;7.85;;;2.60;99.90;;;;;;5153930;27;20043;-68
2023/03/08 08:38:36;;;;;;;8.15;7.35;;;2.70;99.90;;;;;;5154077;27;20482;-68
2023/03/08 08:41:04;;;;;;;9.05;8.18;;;2.70;99.90;;;;;;5153866;27;20039;-68
2023/03/08 08:43:30;;;;;;;8.90;7.20;;;2.70;99.90;;;;;;5135589;27;20103;-68
2023/03/08 08:45:58;;;;;;;8.90;8.00;;;2.70;99.90;;;;;;5153982;27;20054;-68
2023/03/08 08:48:24;;;;;;;8.27;7.38;;;2.80;99.90;;;;;;5153943;27;20046;-69
2023/03/08 08:50:51;;;;;;;8.13;7.20;;;2.90;99.90;;;;;;5153948;27;20141;-73
2023/03/08 08:53:17;;;;;;;7.90;6.88;;;3.00;99.90;;;;;;5135303;27;20053;-69
2023/03/08 08:55:43;;;;;;;9.20;8.30;;;3.00;99.90;;;;;;5135534;27;20049;-67
2023/03/08 08:58:09;;;;;;;8.60;7.32;;;3.20;99.90;;;;;;5153507;27;20047;-69
2023/03/08 09:00:35;;;;;;;7.10;6.40;;;3.30;99.90;;;;;;5154190;27;20391;-69
2023/03/08 09:03:02;;;;;;;8.32;6.05;;;3.50;99.90;;;;;;5153427;27;20047;-68
2023/03/08 09:05:29;;;;;;;10.05;6.90;;;3.70;99.90;;;;;;5153447;27;20065;-68
2023/03/08 09:07:57;;;;;;;7.35;6.55;;;3.90;99.90;;;;;;5153346;27;20121;-68
2023/03/08 09:10:24;;;;;;;6.47;5.88;;;4.00;99.90;;;;;;5153651;27;20043;-68
2023/03/08 09:12:50;;;;;;;8.55;6.70;;;4.10;99.90;;;;;;5153511;27;20049;-68
2023/03/08 09:15:15;;;;;;;7.47;6.55;;;4.10;99.90;;;;;;5138391;27;20043;-69
2023/03/08 09:17:41;;;;;;;8.73;6.00;;;4.10;99.90;;;;;;5157194;27;20043;-68
2023/03/08 09:20:08;;;;;;;6.35;5.78;;;4.10;99.90;;;;;;5157269;27;20371;-68
2023/03/08 09:22:37;;;;;;;6.93;6.32;;;4.20;99.90;;;;;;5157602;27;20356;-69
2023/03/08 09:25:05;;;;;;;6.68;6.05;;;4.20;99.90;;;;;;5157300;27;20130;-68
2023/03/08 09:27:30;;;;;;;6.93;6.28;;;4.30;99.90;;;;;;5157161;27;20039;-69
2023/03/08 09:29:57;;;;;;;7.68;6.95;;;4.40;99.90;;;;;;5121477;27;20042;-69
2023/03/08 09:32:23;;;;;;;6.43;5.55;;;4.30;99.90;;;;;;5157212;27;20043;-69
2023/03/08 09:34:50;;;;;;;6.72;5.35;;;4.30;99.90;;;;;;5138483;27;20057;-68
2023/03/08 09:37:16;;;;;;;5.18;4.30;;;4.30;99.90;;;;;;5157055;27;20085;-68
2023/03/08 09:39:42;;;;;;;6.63;6.03;;;4.30;99.90;;;;;;5157484;27;20117;-68
2023/03/08 09:42:19;;;;;;;7.05;6.45;;;4.30;99.90;;;;;;5156969;27;20155;-69
2023/03/08 09:45:21;;;;;;;7.30;6.70;;;3.60;99.90;;;;;;5157387;27;20083;-69
2023/03/08 09:48:09;;;;;;;7.45;5.95;;;4.30;99.90;;;;;;5156991;27;20035;-69
2023/03/08 09:50:47;;;;;;;7.40;5.38;;;4.40;99.90;;;;;;5157533;27;20134;-69
2023/03/08 09:53:20;;;;;;;5.75;5.15;;;4.60;99.90;;;;;;5157178;27;20083;-69
2023/03/08 09:56:00;;;;;;;5.57;5.05;;;4.70;99.90;;;;;;5157196;27;20086;-69
2023/03/08 09:58:32;;;;;;;5.72;5.22;;;4.90;99.90;;;;;;5156976;27;20062;-68
2023/03/08 10:01:37;;;;;;;6.05;5.45;;;5.10;99.90;;;;;;5156707;27;20042;-68
2023/03/08 10:04:29;;;;;;;7.15;5.40;;;5.20;99.90;;;;;;5156926;27;20050;-68
2023/03/08 10:06:59;;;;;;;5.78;5.28;;;5.20;99.90;;;;;;5090025;27;20054;-68
2023/03/08 10:09:28;;;;;;;7.15;6.43;;;5.20;99.90;;;;;;5156909;27;20425;-68
2023/03/08 10:12:01;;;;;;;6.32;5.72;;;5.10;99.90;;;;;;5156429;27;20038;-68
2023/03/08 10:14:35;;;;;;;5.93;4.32;;;5.10;99.90;;;;;;5156771;27;20043;-68
2023/03/08 10:17:11;;;;;;;4.85;4.32;;;5.10;99.90;;;;;;5156826;27;20085;-70
2023/03/08 10:19:43;;;;;;;4.63;3.88;;;5.00;99.90;;;;;;5156160;27;20042;-68
2023/03/08 10:22:19;;;;;;;5.10;4.20;;;4.90;99.90;;;;;;5138117;27;20059;-70
2023/03/08 10:24:52;;;;;;;5.47;4.75;;;5.00;99.90;;;;;;5156409;27;20095;-69
2023/03/08 10:27:25;;;;;;;4.47;3.45;;;5.30;99.90;;;;;;5155556;27;20049;-68
2023/03/08 10:30:10;;;;;;;6.18;3.83;;;5.90;99.90;;;;;;5156569;27;20038;-71
2023/03/08 10:32:42;;;;;;;3.63;3.33;;;6.70;99.90;;;;;;5156568;27;20091;-69
2023/03/08 10:35:08;;;;;;;3.28;2.95;;;7.50;99.90;;;;;;5155869;27;20126;-70
2023/03/08 10:37:33;;;;;;;3.40;3.10;;;8.10;99.90;;;;;;5155674;27;20078;-69
2023/03/08 10:40:04;;;;;;;5.38;4.18;;;8.50;99.90;;;;;;5137740;27;20050;-69
2023/03/08 10:42:31;;;;;;;5.05;4.03;;;8.70;99.90;;;;;;5156389;27;20046;-68
2023/03/08 10:45:03;;;;;;;2.67;2.45;;;8.90;99.90;;;;;;5156732;27;20074;-69
2023/03/08 10:47:35;;;;;;;4.72;3.67;;;8.90;99.90;;;;;;5159339;27;20080;-69
2023/03/08 10:50:18;;;;;;;3.67;3.38;;;8.60;99.90;;;;;;5140093;27;20111;-69
2023/03/08 10:52:46;;;;;;;7.40;3.67;;;8.10;99.90;;;;;;5158674;27;20050;-69
2023/03/08 10:55:13;;;;;;;6.35;3.40;;;7.50;99.90;;;;;;5157997;27;20081;-70
2023/03/08 10:57:53;;;;;;;3.22;3.00;;;7.00;99.90;;;;;;5155332;27;20035;-69
2023/03/08 11:00:18;;;;;;;4.72;3.20;;;6.80;99.90;;;;;;5155459;27;20125;-69
2023/03/08 11:02:45;;;;;;;3.13;2.83;;;6.60;99.90;;;;;;5155394;27;20082;-70
2023/03/08 11:05:19;;;;;;;4.15;3.55;;;6.40;99.90;;;;;;5155229;27;20039;-69
2023/03/08 11:07:57;;;;;;;2.80;2.50;;;6.30;99.90;;;;;;5155278;27;20548;-69
2023/03/08 11:10:25;;;;;;;5.40;3.75;;;6.20;99.90;;;;;;5155785;27;20053;-69
2023/03/08 11:13:30;;;;;;;4.93;4.20;;;6.00;99.90;;;;;;5155158;27;20038;-70
2023/03/08 11:16:05;;;;;;;4.35;3.75;;;6.00;99.90;;;;;;5154801;27;20423;-70
2023/03/08 11:18:46;;;;;;;4.95;4.32;;;5.90;99.90;;;;;;5154697;27;20074;-69
2023/03/08 11:21:22;;;;;;;5.57;5.07;;;5.90;99.90;;;;;;5136701;27;20052;-69
2023/03/08 11:23:55;;;;;;;6.07;4.68;;;5.70;99.90;;;;;;5155067;27;20038;-70
2023/03/08 11:26:36;;;;;;;5.40;4.90;;;5.70;99.90;;;;;;5155101;27;20107;-69
2023/03/08 11:29:25;;;;;;;6.68;4.45;;;5.80;99.90;;;;;;5154887;27;20047;-71
2023/03/08 11:32:19;;;;;;;4.18;3.78;;;5.70;99.90;;;;;;5155232;27;20043;-68
2023/03/08 11:35:23;;;;;;;5.53;4.68;;;5.60;99.90;;;;;;5155187;27;20417;-70
2023/03/08 11:38:16;;;;;;;5.03;3.65;;;5.60;99.90;;;;;;5070061;28;20080;-70
2023/03/08 11:41:13;;;;;;;4.25;3.63;;;5.50;99.90;;;;;;5154017;27;20054;-69
2023/03/08 11:44:27;;;;;;;4.90;4.40;;;5.50;99.90;;;;;;5136293;27;20420;-69
2023/03/08 11:47:23;;;;;;;6.38;4.40;;;5.40;99.90;;;;;;5146724;27;20057;-69
2023/03/08 11:50:25;;;;;;;7.10;4.95;;;5.50;99.90;;;;;;5154525;27;20055;-70
2023/03/08 11:52:59;;;;;;;6.47;5.00;;;5.50;99.90;;;;;;5154764;27;20055;-69
2023/03/08 11:55:47;;;;;;;4.72;4.22;;;5.50;99.90;;;;;;5154592;27;20047;-68
2023/03/08 11:58:22;;;;;;;6.10;5.50;;;5.50;99.90;;;;;;5154319;27;20075;-68
2023/03/08 12:00:50;;;;;;;5.32;4.60;;;5.60;99.90;;;;;;5154396;27;20050;-69
2023/03/08 12:03:25;;;;;;;5.32;4.10;;;5.50;99.90;;;;;;5135950;27;20121;-69
2023/03/08 12:05:59;;;;;;;3.22;2.83;;;5.50;99.90;;;;;;5154243;27;20096;-68
2023/03/08 12:09:06;;;;;;;4.25;3.70;;;5.60;99.90;;;;;;5154254;27;20039;-68
2023/03/08 12:11:57;;;;;;;4.65;3.65;;;5.60;99.90;;;;;;5069845;28;20088;-69
2023/03/08 12:14:29;;;;;;;3.75;3.17;;;5.60;99.90;;;;;;5070030;28;20052;-69
2023/03/08 12:17:23;;;;;;;4.63;3.78;;;5.60;99.90;;;;;;5128811;27;20059;-68
2023/03/08 12:19:50;;;;;;;6.80;3.50;;;5.60;99.90;;;;;;5135657;27;20517;-70
2023/03/08 12:22:45;;;;;;;4.03;3.35;;;4.70;99.90;;;;;;5135560;27;20039;-69
2023/03/08 12:25:26;;;;;;;4.07;3.33;;;5.70;99.90;;;;;;5154178;27;20043;-68
2023/03/08 12:28:02;;;;;;;5.25;3.05;;;5.70;99.90;;;;;;5135422;27;20039;-70
2023/03/08 12:30:58;;;;;;;6.65;3.75;;;5.80;99.90;;;;;;5135446;27;20042;-68
2023/03/08 12:33:25;;;;;;;4.68;4.28;;;5.80;99.90;;;;;;5153854;27;20144;-69
2023/03/08 12:36:00;;;;;;;6.45;3.35;;;5.90;99.90;;;;;;5153393;27;20473;-69
2023/03/08 12:38:45;;;;;;;5.03;3.85;;;5.90;99.90;;;;;;5153879;27;20182;-70
2023/03/08 12:41:30;;;;;;;4.00;3.50;;;5.70;99.90;;;;;;5153761;27;20039;-69
2023/03/08 12:44:22;;;;;;;5.43;3.92;;;5.70;99.90;;;;;;5154050;27;20051;-68
2023/03/08 12:46:57;;;;;;;5.28;3.38;;;5.60;99.90;;;;;;5153687;27;20034;-69
2023/03/08 12:49:30;;;;;;;3.05;2.28;;;5.70;99.90;;;;;;5155039;27;20126;-67
2023/03/08 12:52:16;;;;;;;2.78;2.22;;;5.80;99.90;;;;;;5157975;27;20065;-68
2023/03/08 12:54:42;;;;;;;3.35;1.90;;;5.80;99.90;;;;;;5157628;27;20038;-70
2023/03/08 12:57:20;;;;;;;1.45;1.30;;;5.80;99.90;;;;;;5157498;27;20540;-68
2023/03/08 12:59:46;;;;;;;1.92;1.83;;;5.80;99.90;;;;;;5157823;27;20038;-69
2023/03/08 13:02:29;;;;;;;2.92;1.88;;;5.80;99.90;;;;;;5157855;27;20047;-69
2023/03/08 13:05:32;;;;;;;3.17;1.83;;;5.80;99.90;;;;;;5157646;27;20043;-69
2023/03/08 13:08:13;;;;;;;3.58;1.77;;;5.70;99.90;;;;;;5157836;27;20049;-69
2023/03/08 13:11:04;;;;;;;3.35;1.80;;;5.70;99.90;;;;;;5157493;27;20058;-69